Time;durP1;ratioP1;P1;durP2;ratioP2;P2;SDS_P1;SDS_P2;PMS_P1;PMS_P2;Temp;Humidity;BMP_temperature;BMP_pressure;BME280_temperature;BME280_humidity;BME280_pressure;Samples;Min_cycle;Max_cycle;Signal;HPM_P1;HPM_P2
2022/12/10 11:14:45;;;;;;;11.27;9.27;;;13.90;96.70;;;;;;5105032;27;20133;-73
2022/12/10 11:17:19;;;;;;;33.15;26.25;;;13.90;96.70;;;;;;5098955;28;20421;-73
2022/12/10 11:19:57;;;;;;;10.60;9.50;;;13.90;96.70;;;;;;5093330;28;20502;-73
2022/12/10 11:22:28;;;;;;;9.80;8.52;;;13.90;96.70;;;;;;5091578;28;20075;-73
2022/12/10 11:24:56;;;;;;;8.20;6.82;;;13.90;96.70;;;;;;5091145;28;20118;-74
2022/12/10 11:27:38;;;;;;;7.68;6.85;;;14.00;96.70;;;;;;5091772;28;20392;-74
2022/12/10 11:30:12;;;;;;;7.80;6.38;;;14.00;96.70;;;;;;5092263;28;20044;-74
2022/12/10 11:33:03;;;;;;;6.65;6.00;;;14.00;96.70;;;;;;5093493;28;20048;-74
2022/12/10 11:35:43;;;;;;;7.45;6.75;;;14.10;96.70;;;;;;5094700;28;20143;-74
2022/12/10 11:38:22;;;;;;;9.73;7.15;;;14.10;96.70;;;;;;5096881;28;20043;-74
2022/12/10 11:40:53;;;;;;;7.88;7.15;;;14.10;96.70;;;;;;5096779;28;20044;-74
2022/12/10 11:43:39;;;;;;;9.73;7.82;;;14.20;96.70;;;;;;5097849;28;20063;-73
2022/12/10 11:46:19;;;;;;;8.43;7.35;;;14.20;96.70;;;;;;5094693;28;20036;-73
2022/12/10 11:49:00;;;;;;;8.38;7.47;;;14.20;96.70;;;;;;5093167;28;20588;-73
2022/12/10 11:51:35;;;;;;;8.50;7.15;;;14.20;96.70;;;;;;5092782;28;20700;-74
2022/12/10 11:54:20;;;;;;;8.98;7.22;;;14.20;96.70;;;;;;5093914;28;20497;-74
2022/12/10 11:56:56;;;;;;;11.48;7.95;;;14.30;96.70;;;;;;5094823;28;20050;-74
2022/12/10 11:59:28;;;;;;;8.15;7.32;;;14.30;96.70;;;;;;5091302;28;20055;-74
2022/12/10 12:02:44;;;;;;;8.38;7.57;;;14.30;96.70;;;;;;5091308;28;20474;-75
2022/12/10 12:05:45;;;;;;;8.55;7.72;;;14.40;96.70;;;;;;5073836;28;20048;-75
2022/12/10 12:08:21;;;;;;;10.38;7.63;;;14.40;96.70;;;;;;5089413;28;20046;-74
2022/12/10 12:11:22;;;;;;;8.23;7.43;;;14.40;96.70;;;;;;5093576;28;20050;-74
2022/12/10 12:13:57;;;;;;;9.57;8.00;;;14.50;96.70;;;;;;5086664;28;20048;-75
2022/12/10 12:16:30;;;;;;;8.75;7.82;;;14.50;96.70;;;;;;5090714;28;20145;-74
2022/12/10 12:19:03;;;;;;;8.60;7.78;;;14.50;96.70;;;;;;5090039;28;20040;-73
2022/12/10 12:21:31;;;;;;;8.93;7.97;;;14.50;96.70;;;;;;5073669;28;20059;-74
2022/12/10 12:24:02;;;;;;;9.32;8.18;;;14.50;96.70;;;;;;5091572;28;20040;-74
2022/12/10 12:26:36;;;;;;;9.82;8.02;;;14.60;96.70;;;;;;5081948;28;20127;-75
2022/12/10 12:29:15;;;;;;;9.07;8.13;;;14.60;96.70;;;;;;5076632;28;20193;-74
2022/12/10 12:31:46;;;;;;;10.57;6.97;;;14.60;96.70;;;;;;5084139;28;20151;-75
2022/12/10 12:34:21;;;;;;;8.48;7.32;;;14.70;96.70;;;;;;5075639;28;20048;-74
2022/12/10 12:36:51;;;;;;;7.72;6.95;;;14.70;96.70;;;;;;5084246;28;20028;-73
2022/12/10 12:39:32;;;;;;;9.10;8.20;;;14.80;96.70;;;;;;5074216;28;20071;-75
2022/12/10 12:42:06;;;;;;;9.52;7.60;;;14.80;96.70;;;;;;5076353;28;20091;-76
2022/12/10 12:44:46;;;;;;;6.78;6.00;;;14.80;96.70;;;;;;5076163;28;20048;-75
2022/12/10 12:47:26;;;;;;;6.40;5.28;;;14.80;96.70;;;;;;5077140;28;20040;-75
2022/12/10 12:49:59;;;;;;;5.32;4.82;;;14.90;96.70;;;;;;5059028;28;20497;-75
2022/12/10 12:52:36;;;;;;;7.45;5.53;;;14.90;96.70;;;;;;5077088;28;20753;-75
2022/12/10 12:55:15;;;;;;;5.80;5.20;;;14.90;96.70;;;;;;5076986;28;20047;-76
2022/12/10 12:57:48;;;;;;;5.22;4.53;;;14.90;96.70;;;;;;5073337;28;20519;-77
2022/12/10 13:00:18;;;;;;;5.40;4.68;;;14.90;96.70;;;;;;5081800;28;20123;-74
2022/12/10 13:03:00;;;;;;;7.55;5.93;;;14.90;96.70;;;;;;5076411;28;20048;-75
2022/12/10 13:05:32;;;;;;;7.30;6.15;;;15.00;96.70;;;;;;5079192;28;20053;-74
2022/12/10 13:08:29;;;;;;;6.32;5.50;;;14.90;96.70;;;;;;5099057;28;20055;-74
2022/12/10 13:11:00;;;;;;;6.35;5.70;;;14.80;96.70;;;;;;5079493;28;20093;-75
2022/12/10 13:13:34;;;;;;;8.13;5.60;;;14.80;96.70;;;;;;5082570;28;20474;-76
2022/12/10 13:16:46;;;;;;;5.93;5.20;;;14.80;96.70;;;;;;5074263;28;20373;-75
2022/12/10 13:19:28;;;;;;;6.10;5.50;;;14.90;96.70;;;;;;5075480;28;20135;-74
2022/12/10 13:22:01;;;;;;;5.45;4.85;;;14.90;96.70;;;;;;5081838;28;20035;-74
2022/12/10 13:25:04;;;;;;;5.38;4.68;;;15.00;96.70;;;;;;5078123;28;20040;-75
2022/12/10 13:27:34;;;;;;;7.30;5.70;;;15.10;96.70;;;;;;5004916;28;20063;-74
2022/12/10 13:30:20;;;;;;;9.82;7.60;;;15.10;96.70;;;;;;5068266;28;20055;-75
2022/12/10 13:33:02;;;;;;;7.15;6.45;;;15.10;96.70;;;;;;5076269;28;20159;-74
2022/12/10 13:35:41;;;;;;;7.10;5.93;;;15.10;96.70;;;;;;5076239;28;20048;-74
2022/12/10 13:38:21;;;;;;;7.35;6.55;;;15.00;96.70;;;;;;5081545;28;20050;-76
2022/12/10 13:46:58;;;;;;;3.63;3.25;;;15.00;96.70;;;;;;5082033;28;20073;-75
2022/12/10 13:49:27;;;;;;;4.53;3.05;;;14.80;96.70;;;;;;5084130;28;20048;-77
2022/12/10 13:52:00;;;;;;;3.45;2.92;;;14.80;96.70;;;;;;5082375;28;20050;-76
2022/12/10 13:55:04;;;;;;;4.65;3.00;;;14.80;96.70;;;;;;5083657;28;20098;-77
2022/12/10 13:58:04;;;;;;;5.10;4.60;;;14.80;96.70;;;;;;5082278;28;20051;-76
2022/12/10 14:00:38;;;;;;;6.90;4.75;;;15.00;96.70;;;;;;5080790;28;20048;-74
2022/12/10 14:03:41;;;;;;;5.03;4.47;;;15.10;96.70;;;;;;5078139;28;20040;-75
2022/12/10 14:06:17;;;;;;;4.13;3.72;;;15.10;96.70;;;;;;5060210;28;20452;-74
2022/12/10 14:08:58;;;;;;;3.90;3.33;;;15.10;96.70;;;;;;5084174;28;20508;-75
2022/12/10 14:11:31;;;;;;;5.50;3.88;;;15.10;96.70;;;;;;5083952;28;20062;-75
2022/12/10 14:14:10;;;;;;;4.20;3.80;;;15.10;96.70;;;;;;5073947;28;20056;-74
2022/12/10 14:16:41;;;;;;;6.20;4.80;;;15.20;96.70;;;;;;5081536;28;20044;-75
2022/12/10 14:19:13;;;;;;;13.85;11.43;;;15.20;96.70;;;;;;5083173;28;20062;-75
2022/12/10 14:21:44;;;;;;;10.55;9.18;;;15.20;96.70;;;;;;5080427;28;20055;-72
2022/12/10 14:24:31;;;;;;;6.00;5.38;;;15.20;96.70;;;;;;5062702;28;20465;-75
2022/12/10 14:27:05;;;;;;;5.63;4.63;;;15.20;96.70;;;;;;5082088;28;20458;-75
2022/12/10 14:29:35;;;;;;;5.75;4.75;;;15.00;96.70;;;;;;5064226;28;20061;-75
2022/12/10 14:32:03;;;;;;;14.63;11.48;;;15.00;96.70;;;;;;5063797;28;20052;-74
2022/12/10 14:34:31;;;;;;;7.50;6.57;;;15.00;96.70;;;;;;5079263;28;20056;-72
2022/12/10 14:37:04;;;;;;;6.88;6.15;;;15.00;96.70;;;;;;5091963;28;20051;-73
2022/12/10 14:39:34;;;;;;;6.22;5.63;;;15.00;96.70;;;;;;5078526;28;20540;-74
2022/12/10 14:42:05;;;;;;;6.50;5.00;;;15.00;96.70;;;;;;5078394;28;20040;-74
2022/12/10 14:44:39;;;;;;;6.53;5.50;;;15.00;96.70;;;;;;5079264;28;20040;-74
2022/12/10 14:47:13;;;;;;;7.53;5.78;;;15.00;96.70;;;;;;5080916;28;20036;-74
2022/12/10 14:49:43;;;;;;;6.25;5.10;;;14.90;96.70;;;;;;5081401;28;20044;-75
2022/12/10 14:52:13;;;;;;;7.25;6.43;;;14.90;96.70;;;;;;5082876;28;20583;-74
2022/12/10 14:54:42;;;;;;;6.85;5.90;;;14.90;96.70;;;;;;5080167;28;20131;-74
2022/12/10 14:57:17;;;;;;;9.13;6.75;;;14.90;96.70;;;;;;5082034;28;20524;-76
2022/12/10 14:59:50;;;;;;;8.85;6.47;;;14.90;96.70;;;;;;5081194;28;20044;-76
2022/12/10 15:02:25;;;;;;;8.48;7.18;;;14.90;96.70;;;;;;5080767;28;20040;-73
2022/12/10 15:04:55;;;;;;;9.35;7.43;;;14.90;96.70;;;;;;5064012;28;20089;-74
2022/12/10 15:07:25;;;;;;;7.32;6.50;;;14.80;96.70;;;;;;5081257;28;20447;-74
2022/12/10 15:09:55;;;;;;;8.00;6.53;;;14.80;96.70;;;;;;5077408;28;20076;-75
2022/12/10 15:12:32;;;;;;;7.03;6.10;;;14.80;96.70;;;;;;5079489;28;20155;-75
2022/12/10 15:15:08;;;;;;;7.53;6.43;;;14.80;96.70;;;;;;5079750;28;20135;-74
2022/12/10 15:17:38;;;;;;;7.80;6.47;;;14.70;96.70;;;;;;5079747;28;20052;-76
2022/12/10 15:20:18;;;;;;;7.93;6.70;;;14.70;96.70;;;;;;5081171;28;20093;-77
2022/12/10 15:22:46;;;;;;;8.40;6.70;;;14.70;96.70;;;;;;5080266;28;20044;-76
2022/12/10 15:25:26;;;;;;;10.32;7.90;;;14.70;96.70;;;;;;5079403;28;20051;-75
2022/12/10 15:27:59;;;;;;;10.55;9.43;;;14.60;96.70;;;;;;5076984;28;20146;-75
2022/12/10 15:30:37;;;;;;;9.23;8.32;;;14.60;96.70;;;;;;5072157;28;20131;-74
2022/12/10 15:33:30;;;;;;;10.93;8.88;;;14.60;96.70;;;;;;5074096;28;20095;-74
2022/12/10 15:36:00;;;;;;;14.40;12.57;;;14.60;96.70;;;;;;5059261;28;20090;-75
2022/12/10 15:38:28;;;;;;;12.60;11.30;;;14.60;96.70;;;;;;5079515;28;20151;-74
2022/12/10 15:41:25;;;;;;;15.63;11.65;;;14.60;96.70;;;;;;5080441;28;20059;-74
2022/12/10 15:44:02;;;;;;;13.02;11.60;;;14.60;96.70;;;;;;5075733;28;20063;-75
2022/12/10 15:46:32;;;;;;;13.00;11.40;;;14.60;96.70;;;;;;5079428;28;20058;-74
2022/12/10 15:49:01;;;;;;;13.15;10.90;;;14.60;96.70;;;;;;5077469;28;20044;-73
2022/12/10 15:51:29;;;;;;;16.52;12.05;;;14.60;96.70;;;;;;5073002;28;20058;-75
2022/12/10 15:53:57;;;;;;;14.57;12.07;;;14.50;96.70;;;;;;5078335;28;20071;-75
2022/12/10 15:56:25;;;;;;;28.77;21.98;;;14.60;96.70;;;;;;5072958;28;20505;-74
2022/12/10 15:58:53;;;;;;;61.50;47.55;;;14.50;96.70;;;;;;5079934;28;20054;-75
2022/12/10 16:01:22;;;;;;;79.57;61.38;;;14.50;96.70;;;;;;5060679;28;20162;-76
2022/12/10 16:03:51;;;;;;;107.10;78.97;;;14.50;96.70;;;;;;5065460;28;20044;-76
2022/12/10 16:06:19;;;;;;;74.15;59.08;;;14.50;96.70;;;;;;5083868;28;20050;-77
2022/12/10 16:08:48;;;;;;;23.88;17.92;;;14.50;96.70;;;;;;5082463;28;20035;-76
2022/12/10 16:11:18;;;;;;;79.15;50.92;;;14.50;96.70;;;;;;5065374;28;20048;-75
2022/12/10 16:13:50;;;;;;;37.08;29.38;;;14.50;96.70;;;;;;5082200;28;20047;-74
2022/12/10 16:16:19;;;;;;;27.83;21.80;;;14.40;96.70;;;;;;5078650;28;20048;-75
2022/12/10 16:18:48;;;;;;;15.85;12.20;;;14.40;96.70;;;;;;5078327;28;20130;-75
2022/12/10 16:21:18;;;;;;;62.95;56.53;;;14.40;96.70;;;;;;5079341;28;20432;-75
2022/12/10 16:23:48;;;;;;;10.55;9.25;;;14.30;96.70;;;;;;5066115;28;20550;-75
2022/12/10 16:26:18;;;;;;;21.67;19.13;;;14.30;96.70;;;;;;5083761;28;20133;-75
2022/12/10 16:28:47;;;;;;;28.33;23.35;;;14.20;96.70;;;;;;5084222;28;20119;-75
2022/12/10 16:31:17;;;;;;;17.75;14.98;;;14.20;96.70;;;;;;5083529;28;20759;-74
2022/12/10 16:33:48;;;;;;;19.80;16.17;;;14.20;96.70;;;;;;5083248;28;20409;-75
2022/12/10 16:36:17;;;;;;;18.25;13.55;;;14.20;96.70;;;;;;5084727;28;20087;-75
2022/12/10 16:38:46;;;;;;;18.15;14.45;;;14.20;96.70;;;;;;5084787;28;20051;-75
2022/12/10 16:41:17;;;;;;;16.80;13.90;;;14.10;96.70;;;;;;5085768;28;20150;-75
2022/12/10 16:43:45;;;;;;;16.60;14.38;;;14.10;96.70;;;;;;5082901;28;20125;-75
2022/12/10 16:46:13;;;;;;;17.73;14.80;;;14.10;96.70;;;;;;5081047;28;20032;-75
2022/12/10 16:48:42;;;;;;;25.33;18.75;;;14.10;96.70;;;;;;5083830;28;20048;-75
2022/12/10 16:51:20;;;;;;;28.17;22.95;;;14.00;96.70;;;;;;5083432;28;20051;-75
2022/12/10 16:53:48;;;;;;;69.18;61.70;;;14.00;96.70;;;;;;5082237;28;20117;-75
2022/12/10 16:56:17;;;;;;;32.75;26.77;;;14.00;96.70;;;;;;5066499;28;20056;-76
2022/12/10 16:58:45;;;;;;;15.57;10.40;;;13.90;96.70;;;;;;5082914;28;20495;-75
2022/12/10 17:01:19;;;;;;;14.45;11.88;;;13.90;96.70;;;;;;5083447;28;20042;-75
2022/12/10 17:03:47;;;;;;;21.08;16.88;;;13.90;96.70;;;;;;5063653;28;20040;-75
2022/12/10 17:06:17;;;;;;;17.80;15.27;;;13.90;96.70;;;;;;5070642;28;20036;-75
2022/12/10 17:08:49;;;;;;;18.83;15.60;;;13.90;96.70;;;;;;5082916;28;20040;-75
2022/12/10 17:14:14;;;;;;;15.50;13.25;;;13.90;96.70;;;;;;5081814;28;20068;-76
2022/12/10 17:16:42;;;;;;;14.63;12.02;;;13.80;96.70;;;;;;5080415;28;20051;-75
2022/12/10 17:19:12;;;;;;;13.85;12.48;;;13.80;96.70;;;;;;5083241;28;20496;-77
2022/12/10 17:21:41;;;;;;;15.77;13.27;;;13.80;96.70;;;;;;5082545;28;20094;-77
2022/12/10 17:24:09;;;;;;;15.95;12.43;;;13.80;96.70;;;;;;5081769;28;20028;-76
2022/12/10 17:26:42;;;;;;;13.15;10.93;;;13.80;96.70;;;;;;5080463;28;20127;-75
2022/12/10 17:29:16;;;;;;;13.35;10.52;;;13.80;96.70;;;;;;5076772;28;20429;-75
2022/12/10 17:31:45;;;;;;;19.58;14.00;;;13.80;96.70;;;;;;5079102;28;20097;-76
2022/12/10 17:34:15;;;;;;;15.13;13.10;;;13.60;96.70;;;;;;5079123;28;20040;-74
2022/12/10 17:36:45;;;;;;;20.25;16.02;;;13.60;96.70;;;;;;5082672;28;20104;-74
2022/12/10 17:39:14;;;;;;;26.02;22.70;;;13.60;96.70;;;;;;5076868;28;20048;-75
2022/12/10 17:41:50;;;;;;;22.27;19.58;;;13.60;96.70;;;;;;5081349;28;20069;-76
2022/12/10 17:44:21;;;;;;;18.70;15.57;;;13.50;96.70;;;;;;5082958;28;20052;-76
2022/12/10 17:46:51;;;;;;;17.30;13.13;;;13.50;96.70;;;;;;5083746;28;20055;-76
2022/12/10 17:49:20;;;;;;;17.17;14.27;;;13.50;96.70;;;;;;5081039;28;20044;-75
2022/12/10 17:51:50;;;;;;;16.88;14.27;;;13.50;96.70;;;;;;5082332;28;20044;-74
2022/12/10 17:54:19;;;;;;;14.07;11.43;;;13.50;96.70;;;;;;5081628;28;20044;-75
2022/12/10 17:56:48;;;;;;;14.48;11.18;;;13.50;96.70;;;;;;5075236;28;20064;-74
2022/12/10 17:59:17;;;;;;;10.20;8.43;;;13.40;96.70;;;;;;5080327;28;20059;-75
2022/12/10 18:01:45;;;;;;;15.15;10.80;;;13.40;96.70;;;;;;5082757;28;20555;-76
2022/12/10 18:04:16;;;;;;;11.57;9.63;;;13.40;96.70;;;;;;5074051;28;20051;-76
2022/12/10 18:06:45;;;;;;;15.48;12.98;;;13.40;96.70;;;;;;5074637;28;20040;-77
2022/12/10 18:09:16;;;;;;;11.30;7.90;;;13.40;96.70;;;;;;5076470;28;20051;-76
2022/12/10 18:11:45;;;;;;;15.27;10.30;;;13.30;96.70;;;;;;5075125;28;20117;-76
2022/12/10 18:14:13;;;;;;;12.57;9.93;;;13.30;96.70;;;;;;5070925;28;20485;-76
2022/12/10 18:16:42;;;;;;;18.33;10.65;;;13.30;96.70;;;;;;5076210;28;20036;-76
2022/12/10 18:19:14;;;;;;;11.50;8.90;;;13.40;96.70;;;;;;5077130;28;20072;-76
2022/12/10 18:21:43;;;;;;;15.25;11.25;;;13.40;96.70;;;;;;5075830;28;20132;-76
2022/12/10 18:24:12;;;;;;;14.07;9.20;;;13.40;96.70;;;;;;5076303;28;20040;-77
2022/12/10 18:26:42;;;;;;;20.48;14.45;;;13.40;96.70;;;;;;5075374;28;20051;-76
2022/12/10 18:29:14;;;;;;;17.85;12.02;;;13.40;96.70;;;;;;5079361;28;20438;-75
2022/12/10 18:31:44;;;;;;;14.38;11.55;;;13.40;96.70;;;;;;5082279;28;20050;-77
2022/12/10 18:34:16;;;;;;;13.93;11.90;;;13.50;96.70;;;;;;5078231;28;20623;-78
2022/12/10 18:36:46;;;;;;;14.32;11.80;;;13.50;96.70;;;;;;5078204;28;20139;-77
2022/12/10 18:39:17;;;;;;;12.35;10.55;;;13.50;96.70;;;;;;5075345;28;20051;-79
2022/12/10 18:41:48;;;;;;;15.55;12.88;;;13.50;96.70;;;;;;5076616;28;20129;-77
2022/12/10 18:44:20;;;;;;;16.85;14.00;;;13.50;96.70;;;;;;5082191;28;20043;-75
2022/12/10 18:46:49;;;;;;;19.83;15.15;;;13.50;96.70;;;;;;5062235;28;20044;-73
2022/12/10 18:49:18;;;;;;;20.70;14.57;;;13.50;96.70;;;;;;5080252;28;20132;-75
2022/12/10 18:51:47;;;;;;;18.40;13.88;;;13.50;96.70;;;;;;5080756;28;20055;-75
2022/12/10 18:54:15;;;;;;;23.98;20.67;;;13.50;96.70;;;;;;5078736;28;20051;-75
2022/12/10 18:56:43;;;;;;;17.40;12.70;;;13.40;96.70;;;;;;5080018;28;20082;-76
2022/12/10 18:59:26;;;;;;;9.77;6.90;;;13.40;96.70;;;;;;5079399;28;20036;-76
2022/12/10 19:01:54;;;;;;;8.80;6.53;;;13.30;96.70;;;;;;5080326;28;20630;-76
2022/12/10 19:04:22;;;;;;;8.63;6.13;;;13.30;96.70;;;;;;5080783;28;20467;-76
2022/12/10 19:06:50;;;;;;;12.43;6.45;;;13.20;96.70;;;;;;5080502;28;20046;-75
2022/12/10 19:09:19;;;;;;;8.32;6.35;;;13.20;96.70;;;;;;5080011;28;20676;-76
2022/12/10 19:11:50;;;;;;;7.75;6.65;;;13.20;96.70;;;;;;5080696;28;20455;-76
2022/12/10 19:14:20;;;;;;;10.27;7.25;;;13.20;96.70;;;;;;5079336;28;20056;-76
2022/12/10 19:16:50;;;;;;;8.40;6.97;;;13.10;96.70;;;;;;5080667;28;20594;-75
2022/12/10 19:19:19;;;;;;;8.10;6.60;;;13.10;96.70;;;;;;5080846;28;20052;-75
2022/12/10 19:21:47;;;;;;;8.80;5.93;;;13.10;96.70;;;;;;5063705;28;20054;-76
2022/12/10 19:24:15;;;;;;;9.27;5.55;;;13.10;96.70;;;;;;5082521;28;20595;-75
2022/12/10 19:26:44;;;;;;;6.85;5.30;;;13.10;96.70;;;;;;5081411;28;20070;-75
2022/12/10 19:29:15;;;;;;;9.88;6.03;;;13.00;96.70;;;;;;5081013;28;20051;-75
2022/12/10 19:31:46;;;;;;;7.38;5.90;;;13.00;96.70;;;;;;5080862;28;20097;-75
2022/12/10 19:34:18;;;;;;;7.55;5.80;;;13.00;96.70;;;;;;5080339;28;20056;-75
2022/12/10 19:36:48;;;;;;;8.93;5.97;;;13.00;96.70;;;;;;5084880;28;20048;-76
2022/12/10 19:39:19;;;;;;;9.10;6.07;;;12.90;96.70;;;;;;5067698;28;20044;-76
2022/12/10 19:41:52;;;;;;;8.82;6.32;;;12.90;96.70;;;;;;5077140;28;20139;-75
2022/12/10 19:44:20;;;;;;;9.82;6.53;;;12.90;96.70;;;;;;5084366;28;20036;-75
2022/12/10 19:46:49;;;;;;;13.40;6.60;;;12.80;96.70;;;;;;5085353;28;20109;-75
2022/12/10 19:49:19;;;;;;;7.47;5.97;;;12.80;96.70;;;;;;5084549;28;20046;-76
2022/12/10 19:51:48;;;;;;;14.20;5.95;;;12.80;96.70;;;;;;5084674;28;20127;-75
2022/12/10 19:54:17;;;;;;;6.72;5.20;;;12.80;96.70;;;;;;5086285;28;20040;-76
2022/12/10 19:56:45;;;;;;;6.55;5.00;;;12.70;96.70;;;;;;5084229;28;20215;-75
2022/12/10 19:59:15;;;;;;;10.23;4.90;;;12.70;96.70;;;;;;5085929;28;20032;-76
2022/12/10 20:01:45;;;;;;;10.32;4.95;;;12.70;96.70;;;;;;5083872;28;20059;-75
2022/12/10 20:04:14;;;;;;;7.35;4.68;;;12.70;96.70;;;;;;5084327;28;20036;-77
2022/12/10 20:06:47;;;;;;;6.97;4.70;;;12.70;96.70;;;;;;5084468;28;20062;-77
2022/12/10 20:09:18;;;;;;;10.30;6.00;;;12.70;96.70;;;;;;5084206;28;20044;-77
2022/12/10 20:11:47;;;;;;;9.50;5.60;;;12.70;96.70;;;;;;5084071;28;20044;-77
2022/12/10 20:14:15;;;;;;;7.65;4.13;;;12.70;96.70;;;;;;5084656;28;20059;-76
2022/12/10 20:16:45;;;;;;;7.03;3.30;;;12.60;96.70;;;;;;5083738;28;20441;-77
2022/12/10 20:19:15;;;;;;;6.97;3.80;;;12.60;96.70;;;;;;5067735;28;20097;-77
2022/12/10 20:21:45;;;;;;;5.57;3.58;;;12.60;96.70;;;;;;5085766;28;20166;-78
2022/12/10 20:24:14;;;;;;;5.03;3.70;;;12.60;96.70;;;;;;5083948;28;20416;-77
2022/12/10 20:26:45;;;;;;;6.82;3.75;;;12.60;96.70;;;;;;5082940;28;20105;-76
2022/12/10 20:29:16;;;;;;;4.95;3.03;;;12.60;96.70;;;;;;5083587;28;20048;-77
2022/12/10 20:31:46;;;;;;;5.32;2.70;;;12.70;96.70;;;;;;5084673;28;20051;-77
2022/12/10 20:34:15;;;;;;;3.55;2.22;;;12.70;96.70;;;;;;5085587;28;20036;-78
2022/12/10 20:36:44;;;;;;;4.05;2.00;;;12.70;96.70;;;;;;5085419;28;20062;-77
2022/12/10 20:39:17;;;;;;;5.28;2.58;;;12.70;96.70;;;;;;5082075;28;20417;-75
2022/12/10 20:41:46;;;;;;;5.13;2.35;;;12.70;96.70;;;;;;5075314;28;20048;-75
2022/12/10 20:44:15;;;;;;;3.15;2.15;;;12.70;96.70;;;;;;5066493;28;20500;-75
2022/12/10 20:46:44;;;;;;;3.42;2.30;;;12.70;96.70;;;;;;5082767;28;20048;-75
2022/12/10 20:49:13;;;;;;;4.32;2.13;;;12.70;96.70;;;;;;5085598;28;20566;-75
2022/12/10 20:51:41;;;;;;;4.30;1.90;;;12.70;96.70;;;;;;5082808;28;20051;-75
2022/12/10 20:54:11;;;;;;;5.00;2.30;;;12.70;96.70;;;;;;5082434;28;20068;-75
2022/12/10 20:56:40;;;;;;;2.65;1.70;;;12.60;96.70;;;;;;5083286;28;20047;-76
2022/12/10 20:59:12;;;;;;;3.70;1.70;;;12.60;96.70;;;;;;5083033;28;20210;-75
2022/12/10 21:01:40;;;;;;;4.65;1.75;;;12.60;96.70;;;;;;5084506;28;20040;-75
2022/12/10 21:04:09;;;;;;;3.53;1.60;;;12.60;96.70;;;;;;5079520;28;20043;-75
2022/12/10 21:06:38;;;;;;;3.85;1.70;;;12.60;96.70;;;;;;5083494;28;20040;-75
2022/12/10 21:09:06;;;;;;;3.67;2.05;;;12.60;96.70;;;;;;5084053;28;20055;-77
2022/12/10 21:11:36;;;;;;;3.13;2.40;;;12.60;96.70;;;;;;5099703;28;20589;-75
2022/12/10 21:14:04;;;;;;;3.55;1.95;;;12.50;96.70;;;;;;5082396;28;20044;-75
2022/12/10 21:16:45;;;;;;;4.18;1.48;;;12.50;96.70;;;;;;5082473;28;20052;-75
2022/12/10 21:19:13;;;;;;;3.92;1.30;;;12.40;96.70;;;;;;5084362;28;20463;-76
2022/12/10 21:21:42;;;;;;;3.90;1.50;;;12.40;96.70;;;;;;5099417;28;20109;-75
2022/12/10 21:24:10;;;;;;;3.25;1.63;;;12.40;96.70;;;;;;5082523;28;20127;-75
2022/12/10 21:26:40;;;;;;;5.72;1.25;;;12.30;96.70;;;;;;5082267;28;20048;-75
2022/12/10 21:29:08;;;;;;;4.35;1.60;;;12.20;96.70;;;;;;5083483;28;20066;-75
2022/12/10 21:31:36;;;;;;;3.03;1.17;;;12.20;96.70;;;;;;5075504;28;20560;-75
2022/12/10 21:34:04;;;;;;;4.72;1.63;;;12.10;96.70;;;;;;5081886;28;20032;-75
2022/12/10 21:36:33;;;;;;;4.60;1.70;;;12.10;96.70;;;;;;5083770;28;20075;-75
2022/12/10 21:39:03;;;;;;;3.95;1.35;;;12.10;96.70;;;;;;5083662;28;20036;-75
2022/12/10 21:44:20;;;;;;;4.05;1.63;;;12.20;96.70;;;;;;5076339;28;20716;-75
2022/12/10 21:46:48;;;;;;;4.43;1.77;;;12.30;96.70;;;;;;5079371;28;20068;-75
2022/12/10 21:49:17;;;;;;;4.60;1.98;;;12.30;96.70;;;;;;5061430;28;20055;-75
2022/12/10 21:51:45;;;;;;;6.18;1.77;;;12.30;96.70;;;;;;5060275;28;20044;-75
2022/12/10 21:54:14;;;;;;;4.63;1.70;;;12.20;96.70;;;;;;5080697;28;20075;-75
2022/12/10 21:56:41;;;;;;;3.75;1.80;;;12.10;96.70;;;;;;5064176;28;20040;-75
2022/12/10 21:59:10;;;;;;;2.78;1.35;;;12.10;96.70;;;;;;5080041;28;20074;-75
2022/12/10 22:01:40;;;;;;;3.00;1.70;;;12.10;96.70;;;;;;5081274;28;20064;-75
2022/12/10 22:04:08;;;;;;;2.63;1.42;;;12.10;96.70;;;;;;5078077;28;20451;-75
2022/12/10 22:06:42;;;;;;;1.88;1.25;;;12.10;96.70;;;;;;5082366;28;20070;-75
2022/12/10 22:09:12;;;;;;;5.95;2.38;;;12.10;96.70;;;;;;5083485;28;20160;-75
2022/12/10 22:11:41;;;;;;;2.35;1.15;;;12.10;96.70;;;;;;5082589;28;20048;-77
2022/12/10 22:14:11;;;;;;;3.53;1.45;;;12.10;96.70;;;;;;5081672;28;20040;-78
2022/12/10 22:16:43;;;;;;;4.82;1.50;;;12.20;96.70;;;;;;5065540;28;20048;-76
2022/12/10 22:19:15;;;;;;;2.47;1.05;;;12.20;96.70;;;;;;5073423;28;20044;-79
2022/12/10 22:21:44;;;;;;;2.53;1.23;;;12.20;96.70;;;;;;5079139;28;20124;-78
2022/12/10 22:24:14;;;;;;;4.75;2.40;;;12.20;96.70;;;;;;5067285;28;20043;-77
2022/12/10 22:26:42;;;;;;;5.95;1.60;;;12.40;96.70;;;;;;5065657;28;20040;-77
2022/12/10 22:29:10;;;;;;;3.92;1.50;;;12.40;96.70;;;;;;5078881;28;20068;-78
2022/12/10 22:31:38;;;;;;;4.43;2.33;;;12.40;96.70;;;;;;5075305;28;20043;-77
2022/12/10 22:34:08;;;;;;;4.53;1.92;;;12.40;96.70;;;;;;5077664;28;20127;-79
2022/12/10 22:36:36;;;;;;;3.75;2.00;;;12.40;96.70;;;;;;5079798;28;20051;-77
2022/12/10 22:39:05;;;;;;;4.78;2.38;;;12.40;96.70;;;;;;5081059;28;20055;-77
2022/12/10 22:41:37;;;;;;;5.38;2.67;;;12.40;96.70;;;;;;5081008;28;20416;-78
2022/12/10 22:44:05;;;;;;;5.75;3.00;;;12.40;96.70;;;;;;5077319;28;20116;-78
2022/12/10 22:46:33;;;;;;;5.35;2.83;;;12.40;96.70;;;;;;5064954;28;20105;-77
2022/12/10 22:49:01;;;;;;;6.03;3.17;;;12.40;96.70;;;;;;5081259;28;20467;-78
2022/12/10 22:51:33;;;;;;;4.97;2.63;;;12.40;96.70;;;;;;5084106;28;20046;-78
2022/12/10 22:54:03;;;;;;;5.70;2.95;;;12.30;96.70;;;;;;5083141;28;20052;-77
2022/12/10 22:56:31;;;;;;;5.28;2.50;;;12.20;96.70;;;;;;5083665;28;20402;-78
2022/12/10 22:59:00;;;;;;;6.35;2.30;;;12.10;96.70;;;;;;5082006;28;20079;-77
2022/12/10 23:01:28;;;;;;;5.88;2.28;;;12.00;96.70;;;;;;5084699;28;20048;-78
2022/12/10 23:03:57;;;;;;;4.28;2.38;;;11.90;96.70;;;;;;5082769;28;20052;-76
2022/12/10 23:06:25;;;;;;;4.93;2.20;;;11.80;96.70;;;;;;5081347;28;20400;-76
2022/12/10 23:08:55;;;;;;;5.45;2.40;;;11.70;96.70;;;;;;5081999;28;20131;-76
2022/12/10 23:11:23;;;;;;;5.13;2.28;;;11.60;96.70;;;;;;5077763;28;20410;-76
2022/12/10 23:13:52;;;;;;;3.85;2.30;;;11.70;96.70;;;;;;5080597;28;20048;-76
2022/12/10 23:16:21;;;;;;;3.90;2.28;;;11.70;96.70;;;;;;5081971;28;20052;-76
2022/12/10 23:18:49;;;;;;;5.25;2.50;;;11.80;96.70;;;;;;5084078;28;20102;-76
2022/12/10 23:21:20;;;;;;;3.50;2.20;;;11.80;96.70;;;;;;5081178;28;20529;-76
2022/12/10 23:23:48;;;;;;;5.93;3.47;;;11.90;96.70;;;;;;5081259;28;20143;-76
2022/12/10 23:26:19;;;;;;;5.88;3.38;;;11.90;96.70;;;;;;5080577;28;20040;-76
2022/12/10 23:28:47;;;;;;;8.20;5.00;;;12.00;96.70;;;;;;5080695;28;20142;-76
2022/12/10 23:31:17;;;;;;;10.25;5.70;;;12.00;96.70;;;;;;5079336;28;20046;-76
2022/12/10 23:33:45;;;;;;;8.73;5.68;;;12.00;96.70;;;;;;5082509;28;20048;-76
2022/12/10 23:36:14;;;;;;;10.07;5.55;;;12.10;96.70;;;;;;5098334;28;20409;-75
2022/12/10 23:38:42;;;;;;;7.95;5.57;;;12.10;96.70;;;;;;5081911;28;20056;-76
2022/12/10 23:41:11;;;;;;;5.78;4.25;;;12.00;96.70;;;;;;5080601;28;20040;-76
2022/12/10 23:43:40;;;;;;;10.50;4.40;;;12.10;96.70;;;;;;5064346;28;20078;-76
2022/12/10 23:46:09;;;;;;;7.20;4.22;;;12.10;96.70;;;;;;5080896;28;20683;-75
2022/12/10 23:48:37;;;;;;;6.80;4.30;;;12.10;96.70;;;;;;5081104;28;20079;-77
2022/12/10 23:51:08;;;;;;;7.15;4.20;;;12.10;96.70;;;;;;5083339;28;21540;-76
2022/12/10 23:53:38;;;;;;;5.85;4.07;;;12.10;96.70;;;;;;5082146;28;20445;-75
2022/12/10 23:56:16;;;;;;;8.07;4.13;;;12.10;96.70;;;;;;5082405;28;20059;-76
2022/12/10 23:58:46;;;;;;;4.53;3.10;;;12.10;96.70;;;;;;5082140;28;20044;-76
